Terminal Aerodrome Forecast
Issued by NWS Pittsburgh, PA

Current Version | Previous Version | Text Only | Print | Product List | Glossary Off
Versions: 1 2 3 4 5 6 7 8 9 10 11 12 13 14 15 16 17 18 19 20 21 22 23 24 25 26 27 28 29 30 31 32 33 34 35 36 37 38 39 40

000
FTUS41 KPBZ 272300
TAFPIT
TAF
KPIT 272323Z 2800/2906 33012KT P6SM SCT025 BKN035
      TEMPO 2800/2802 1 1/2SM -SHSN BKN020
     FM280400 32010KT P6SM BKN035
     FM281500 30008KT P6SM SCT035=

USA.gov is the U.S. government's official web portal to all federal, state and local government web resources and services.